sensor_id;sensor_type;location;lat;lon;timestamp;P1;durP1;ratioP1;P2;durP2;ratioP2
55467;SDS011;41332;42.702;23.200;2022-10-13T00:00:22;10.93;;;7.30;;
55467;SDS011;41332;42.702;23.200;2022-10-13T00:02:47;13.45;;;8.20;;
55467;SDS011;41332;42.702;23.200;2022-10-13T00:05:13;10.35;;;8.05;;
55467;SDS011;41332;42.702;23.200;2022-10-13T00:07:38;12.93;;;7.97;;
55467;SDS011;41332;42.702;23.200;2022-10-13T00:10:03;11.63;;;8.10;;
55467;SDS011;41332;42.702;23.200;2022-10-13T00:12:29;11.80;;;8.57;;
55467;SDS011;41332;42.702;23.200;2022-10-13T00:14:57;10.98;;;7.18;;
55467;SDS011;41332;42.702;23.200;2022-10-13T00:17:23;12.13;;;8.32;;
55467;SDS011;41332;42.702;23.200;2022-10-13T00:19:48;14.05;;;9.00;;
55467;SDS011;41332;42.702;23.200;2022-10-13T00:22:14;13.18;;;8.90;;
55467;SDS011;41332;42.702;23.200;2022-10-13T00:24:39;18.17;;;10.57;;
55467;SDS011;41332;42.702;23.200;2022-10-13T00:27:05;15.07;;;8.90;;
55467;SDS011;41332;42.702;23.200;2022-10-13T00:29:30;15.02;;;8.57;;
55467;SDS011;41332;42.702;23.200;2022-10-13T00:31:55;14.63;;;9.25;;
55467;SDS011;41332;42.702;23.200;2022-10-13T00:34:21;13.18;;;9.18;;
55467;SDS011;41332;42.702;23.200;2022-10-13T00:36:46;11.93;;;7.82;;
55467;SDS011;41332;42.702;23.200;2022-10-13T00:39:12;13.90;;;9.10;;
55467;SDS011;41332;42.702;23.200;2022-10-13T00:41:37;15.60;;;8.95;;
55467;SDS011;41332;42.702;23.200;2022-10-13T00:44:04;12.10;;;8.48;;
55467;SDS011;41332;42.702;23.200;2022-10-13T00:46:32;11.45;;;7.93;;
55467;SDS011;41332;42.702;23.200;2022-10-13T00:49:01;17.05;;;9.38;;
55467;SDS011;41332;42.702;23.200;2022-10-13T00:51:33;13.82;;;8.00;;
55467;SDS011;41332;42.702;23.200;2022-10-13T00:54:03;15.23;;;8.82;;
55467;SDS011;41332;42.702;23.200;2022-10-13T00:56:30;11.90;;;7.72;;
55467;SDS011;41332;42.702;23.200;2022-10-13T00:58:55;15.40;;;8.82;;
55467;SDS011;41332;42.702;23.200;2022-10-13T01:01:22;11.25;;;8.48;;
55467;SDS011;41332;42.702;23.200;2022-10-13T01:03:47;13.50;;;8.77;;
55467;SDS011;41332;42.702;23.200;2022-10-13T01:06:13;15.05;;;8.95;;
55467;SDS011;41332;42.702;23.200;2022-10-13T01:08:40;13.13;;;8.27;;
55467;SDS011;41332;42.702;23.200;2022-10-13T01:17:01;14.23;;;8.27;;
55467;SDS011;41332;42.702;23.200;2022-10-13T01:22:01;13.48;;;9.02;;
55467;SDS011;41332;42.702;23.200;2022-10-13T01:30:23;16.45;;;9.75;;
55467;SDS011;41332;42.702;23.200;2022-10-13T01:35:37;18.63;;;11.30;;
55467;SDS011;41332;42.702;23.200;2022-10-13T01:38:34;20.15;;;9.98;;
55467;SDS011;41332;42.702;23.200;2022-10-13T01:44:42;11.75;;;8.63;;
55467;SDS011;41332;42.702;23.200;2022-10-13T01:46:42;14.43;;;8.27;;
55467;SDS011;41332;42.702;23.200;2022-10-13T01:49:12;15.63;;;9.02;;
55467;SDS011;41332;42.702;23.200;2022-10-13T01:51:41;15.77;;;9.10;;
55467;SDS011;41332;42.702;23.200;2022-10-13T01:56:33;12.88;;;8.07;;
55467;SDS011;41332;42.702;23.200;2022-10-13T01:59:00;11.95;;;8.40;;
55467;SDS011;41332;42.702;23.200;2022-10-13T02:01:43;16.77;;;8.35;;
55467;SDS011;41332;42.702;23.200;2022-10-13T02:07:00;15.55;;;8.75;;
55467;SDS011;41332;42.702;23.200;2022-10-13T02:12:33;15.98;;;8.43;;
55467;SDS011;41332;42.702;23.200;2022-10-13T02:15:04;12.38;;;8.55;;
55467;SDS011;41332;42.702;23.200;2022-10-13T02:17:33;16.48;;;9.15;;
55467;SDS011;41332;42.702;23.200;2022-10-13T02:19:59;12.18;;;7.65;;
55467;SDS011;41332;42.702;23.200;2022-10-13T02:22:28;13.50;;;9.32;;
55467;SDS011;41332;42.702;23.200;2022-10-13T02:25:00;19.25;;;10.25;;
55467;SDS011;41332;42.702;23.200;2022-10-13T02:27:26;20.73;;;11.32;;
55467;SDS011;41332;42.702;23.200;2022-10-13T02:29:53;25.70;;;11.25;;
55467;SDS011;41332;42.702;23.200;2022-10-13T02:32:21;15.20;;;11.02;;
55467;SDS011;41332;42.702;23.200;2022-10-13T02:34:47;12.48;;;7.57;;
55467;SDS011;41332;42.702;23.200;2022-10-13T02:37:13;15.27;;;9.52;;
55467;SDS011;41332;42.702;23.200;2022-10-13T02:39:38;14.90;;;8.75;;
55467;SDS011;41332;42.702;23.200;2022-10-13T02:42:04;13.15;;;8.98;;
55467;SDS011;41332;42.702;23.200;2022-10-13T02:44:30;14.23;;;8.70;;
55467;SDS011;41332;42.702;23.200;2022-10-13T02:46:55;12.43;;;8.10;;
55467;SDS011;41332;42.702;23.200;2022-10-13T02:49:21;15.45;;;9.55;;
55467;SDS011;41332;42.702;23.200;2022-10-13T02:51:46;12.82;;;9.48;;
55467;SDS011;41332;42.702;23.200;2022-10-13T02:54:12;10.45;;;8.23;;
55467;SDS011;41332;42.702;23.200;2022-10-13T02:56:37;14.93;;;8.38;;
55467;SDS011;41332;42.702;23.200;2022-10-13T02:59:02;15.23;;;9.70;;
55467;SDS011;41332;42.702;23.200;2022-10-13T03:01:28;15.82;;;8.82;;
55467;SDS011;41332;42.702;23.200;2022-10-13T03:03:53;14.77;;;9.00;;
55467;SDS011;41332;42.702;23.200;2022-10-13T03:06:19;12.90;;;8.10;;
55467;SDS011;41332;42.702;23.200;2022-10-13T03:08:45;14.88;;;9.43;;
55467;SDS011;41332;42.702;23.200;2022-10-13T03:11:10;15.18;;;9.35;;
55467;SDS011;41332;42.702;23.200;2022-10-13T03:13:36;27.65;;;14.75;;
55467;SDS011;41332;42.702;23.200;2022-10-13T03:16:02;24.33;;;14.15;;
55467;SDS011;41332;42.702;23.200;2022-10-13T03:18:28;20.23;;;12.85;;
55467;SDS011;41332;42.702;23.200;2022-10-13T03:21:01;20.15;;;12.32;;
55467;SDS011;41332;42.702;23.200;2022-10-13T03:23:28;25.52;;;14.48;;
55467;SDS011;41332;42.702;23.200;2022-10-13T03:25:54;25.35;;;15.00;;
55467;SDS011;41332;42.702;23.200;2022-10-13T03:28:20;24.20;;;14.52;;
55467;SDS011;41332;42.702;23.200;2022-10-13T03:30:46;29.45;;;13.90;;
55467;SDS011;41332;42.702;23.200;2022-10-13T03:33:12;26.67;;;14.75;;
55467;SDS011;41332;42.702;23.200;2022-10-13T03:35:38;27.95;;;14.88;;
55467;SDS011;41332;42.702;23.200;2022-10-13T03:38:03;34.42;;;14.82;;
55467;SDS011;41332;42.702;23.200;2022-10-13T03:40:28;26.67;;;13.13;;
55467;SDS011;41332;42.702;23.200;2022-10-13T03:42:54;27.02;;;15.02;;
55467;SDS011;41332;42.702;23.200;2022-10-13T03:45:19;31.73;;;14.48;;
55467;SDS011;41332;42.702;23.200;2022-10-13T03:47:45;24.95;;;13.50;;
55467;SDS011;41332;42.702;23.200;2022-10-13T03:50:10;29.92;;;14.38;;
55467;SDS011;41332;42.702;23.200;2022-10-13T03:52:36;27.83;;;14.90;;
55467;SDS011;41332;42.702;23.200;2022-10-13T03:55:01;25.42;;;15.20;;
55467;SDS011;41332;42.702;23.200;2022-10-13T03:57:27;31.83;;;13.93;;
55467;SDS011;41332;42.702;23.200;2022-10-13T03:59:52;22.23;;;13.45;;
55467;SDS011;41332;42.702;23.200;2022-10-13T04:02:20;23.83;;;11.35;;
55467;SDS011;41332;42.702;23.200;2022-10-13T04:04:46;27.85;;;13.40;;
55467;SDS011;41332;42.702;23.200;2022-10-13T04:07:11;24.98;;;14.00;;
55467;SDS011;41332;42.702;23.200;2022-10-13T04:09:37;26.17;;;12.52;;
55467;SDS011;41332;42.702;23.200;2022-10-13T04:12:02;23.77;;;12.88;;
55467;SDS011;41332;42.702;23.200;2022-10-13T04:14:28;21.85;;;13.63;;
55467;SDS011;41332;42.702;23.200;2022-10-13T04:16:54;25.27;;;13.15;;
55467;SDS011;41332;42.702;23.200;2022-10-13T04:19:22;22.35;;;12.40;;
55467;SDS011;41332;42.702;23.200;2022-10-13T04:21:48;24.10;;;11.82;;
55467;SDS011;41332;42.702;23.200;2022-10-13T04:24:13;26.50;;;12.43;;
55467;SDS011;41332;42.702;23.200;2022-10-13T04:26:41;24.20;;;12.13;;
55467;SDS011;41332;42.702;23.200;2022-10-13T04:29:08;22.42;;;13.23;;
55467;SDS011;41332;42.702;23.200;2022-10-13T04:31:35;23.25;;;13.10;;
55467;SDS011;41332;42.702;23.200;2022-10-13T04:34:01;26.30;;;14.18;;
55467;SDS011;41332;42.702;23.200;2022-10-13T04:36:26;24.30;;;14.98;;
55467;SDS011;41332;42.702;23.200;2022-10-13T04:38:52;22.63;;;13.68;;
55467;SDS011;41332;42.702;23.200;2022-10-13T04:41:18;24.63;;;13.38;;
55467;SDS011;41332;42.702;23.200;2022-10-13T04:43:47;24.38;;;13.65;;
55467;SDS011;41332;42.702;23.200;2022-10-13T04:46:15;21.08;;;12.65;;
55467;SDS011;41332;42.702;23.200;2022-10-13T04:48:43;23.08;;;12.70;;
55467;SDS011;41332;42.702;23.200;2022-10-13T04:51:10;22.70;;;14.68;;
55467;SDS011;41332;42.702;23.200;2022-10-13T04:53:37;26.35;;;14.48;;
55467;SDS011;41332;42.702;23.200;2022-10-13T04:56:04;29.60;;;15.55;;
55467;SDS011;41332;42.702;23.200;2022-10-13T04:58:32;28.08;;;15.80;;
55467;SDS011;41332;42.702;23.200;2022-10-13T05:00:58;29.95;;;16.05;;
55467;SDS011;41332;42.702;23.200;2022-10-13T05:03:25;33.65;;;15.82;;
55467;SDS011;41332;42.702;23.200;2022-10-13T05:05:51;29.33;;;15.65;;
55467;SDS011;41332;42.702;23.200;2022-10-13T05:08:17;33.65;;;16.45;;
55467;SDS011;41332;42.702;23.200;2022-10-13T05:10:51;26.55;;;15.23;;
55467;SDS011;41332;42.702;23.200;2022-10-13T05:13:17;32.95;;;15.32;;
55467;SDS011;41332;42.702;23.200;2022-10-13T05:15:42;23.55;;;12.93;;
55467;SDS011;41332;42.702;23.200;2022-10-13T05:18:08;25.15;;;14.32;;
55467;SDS011;41332;42.702;23.200;2022-10-13T05:20:33;30.98;;;16.17;;
55467;SDS011;41332;42.702;23.200;2022-10-13T05:22:58;24.23;;;14.65;;
55467;SDS011;41332;42.702;23.200;2022-10-13T05:25:24;29.98;;;16.00;;
55467;SDS011;41332;42.702;23.200;2022-10-13T05:27:49;27.92;;;15.38;;
55467;SDS011;41332;42.702;23.200;2022-10-13T05:30:15;26.92;;;14.50;;
55467;SDS011;41332;42.702;23.200;2022-10-13T05:32:40;27.73;;;13.48;;
55467;SDS011;41332;42.702;23.200;2022-10-13T05:35:06;25.48;;;14.10;;
55467;SDS011;41332;42.702;23.200;2022-10-13T05:37:31;25.23;;;13.55;;
55467;SDS011;41332;42.702;23.200;2022-10-13T05:39:57;22.77;;;15.32;;
55467;SDS011;41332;42.702;23.200;2022-10-13T05:42:22;30.58;;;17.23;;
55467;SDS011;41332;42.702;23.200;2022-10-13T05:44:48;34.35;;;16.17;;
55467;SDS011;41332;42.702;23.200;2022-10-13T05:47:13;31.90;;;18.23;;
55467;SDS011;41332;42.702;23.200;2022-10-13T05:49:39;30.48;;;16.65;;
55467;SDS011;41332;42.702;23.200;2022-10-13T05:52:06;28.88;;;15.25;;
55467;SDS011;41332;42.702;23.200;2022-10-13T05:54:35;26.58;;;15.48;;
55467;SDS011;41332;42.702;23.200;2022-10-13T05:59:38;34.53;;;14.95;;
55467;SDS011;41332;42.702;23.200;2022-10-13T06:02:09;30.08;;;15.65;;
55467;SDS011;41332;42.702;23.200;2022-10-13T06:04:39;27.48;;;15.82;;
55467;SDS011;41332;42.702;23.200;2022-10-13T06:07:09;24.90;;;14.30;;
55467;SDS011;41332;42.702;23.200;2022-10-13T06:09:36;27.13;;;14.60;;
55467;SDS011;41332;42.702;23.200;2022-10-13T06:12:04;25.02;;;15.02;;
55467;SDS011;41332;42.702;23.200;2022-10-13T06:14:30;24.27;;;16.08;;
55467;SDS011;41332;42.702;23.200;2022-10-13T06:16:56;27.67;;;15.60;;
55467;SDS011;41332;42.702;23.200;2022-10-13T06:19:21;26.20;;;15.30;;
55467;SDS011;41332;42.702;23.200;2022-10-13T06:21:47;37.35;;;15.75;;
55467;SDS011;41332;42.702;23.200;2022-10-13T06:24:12;32.38;;;16.70;;
55467;SDS011;41332;42.702;23.200;2022-10-13T06:26:37;29.20;;;16.10;;
55467;SDS011;41332;42.702;23.200;2022-10-13T06:29:03;26.88;;;16.15;;
55467;SDS011;41332;42.702;23.200;2022-10-13T06:31:28;24.95;;;15.73;;
55467;SDS011;41332;42.702;23.200;2022-10-13T06:33:54;23.95;;;15.18;;
55467;SDS011;41332;42.702;23.200;2022-10-13T06:36:19;29.10;;;15.52;;
55467;SDS011;41332;42.702;23.200;2022-10-13T06:38:45;27.55;;;16.13;;
55467;SDS011;41332;42.702;23.200;2022-10-13T06:41:11;28.13;;;15.60;;
55467;SDS011;41332;42.702;23.200;2022-10-13T06:43:38;25.55;;;14.40;;
55467;SDS011;41332;42.702;23.200;2022-10-13T06:46:04;29.08;;;16.40;;
55467;SDS011;41332;42.702;23.200;2022-10-13T06:48:29;28.77;;;15.85;;
55467;SDS011;41332;42.702;23.200;2022-10-13T06:50:58;33.80;;;15.60;;
55467;SDS011;41332;42.702;23.200;2022-10-13T06:53:24;29.13;;;15.93;;
55467;SDS011;41332;42.702;23.200;2022-10-13T06:55:50;27.35;;;15.02;;
55467;SDS011;41332;42.702;23.200;2022-10-13T06:58:15;30.02;;;16.10;;
55467;SDS011;41332;42.702;23.200;2022-10-13T07:00:40;25.88;;;14.50;;
55467;SDS011;41332;42.702;23.200;2022-10-13T07:03:06;24.30;;;15.27;;
55467;SDS011;41332;42.702;23.200;2022-10-13T07:05:32;28.25;;;14.55;;
55467;SDS011;41332;42.702;23.200;2022-10-13T07:07:57;29.08;;;17.55;;
55467;SDS011;41332;42.702;23.200;2022-10-13T07:10:22;30.20;;;15.90;;
55467;SDS011;41332;42.702;23.200;2022-10-13T07:12:48;34.25;;;15.77;;
55467;SDS011;41332;42.702;23.200;2022-10-13T07:15:13;24.23;;;14.45;;
55467;SDS011;41332;42.702;23.200;2022-10-13T07:17:39;27.52;;;15.10;;
55467;SDS011;41332;42.702;23.200;2022-10-13T07:20:04;24.55;;;14.18;;
55467;SDS011;41332;42.702;23.200;2022-10-13T07:22:30;21.05;;;14.05;;
55467;SDS011;41332;42.702;23.200;2022-10-13T07:24:56;22.98;;;13.75;;
55467;SDS011;41332;42.702;23.200;2022-10-13T07:27:22;23.90;;;13.80;;
55467;SDS011;41332;42.702;23.200;2022-10-13T07:29:47;20.95;;;13.23;;
55467;SDS011;41332;42.702;23.200;2022-10-13T07:32:13;25.25;;;13.95;;
55467;SDS011;41332;42.702;23.200;2022-10-13T07:34:38;20.20;;;13.48;;
55467;SDS011;41332;42.702;23.200;2022-10-13T07:37:04;22.52;;;13.90;;
55467;SDS011;41332;42.702;23.200;2022-10-13T07:39:29;22.35;;;14.80;;
55467;SDS011;41332;42.702;23.200;2022-10-13T07:41:54;23.63;;;14.23;;
55467;SDS011;41332;42.702;23.200;2022-10-13T07:44:20;25.02;;;13.80;;
55467;SDS011;41332;42.702;23.200;2022-10-13T07:46:46;21.83;;;14.40;;
55467;SDS011;41332;42.702;23.200;2022-10-13T07:49:11;21.85;;;13.50;;
55467;SDS011;41332;42.702;23.200;2022-10-13T07:51:37;22.77;;;15.20;;
55467;SDS011;41332;42.702;23.200;2022-10-13T07:54:02;19.67;;;12.50;;
55467;SDS011;41332;42.702;23.200;2022-10-13T07:56:27;22.10;;;13.32;;
55467;SDS011;41332;42.702;23.200;2022-10-13T07:58:53;21.90;;;14.05;;
55467;SDS011;41332;42.702;23.200;2022-10-13T08:01:18;17.88;;;12.45;;
55467;SDS011;41332;42.702;23.200;2022-10-13T08:03:44;25.10;;;15.38;;
55467;SDS011;41332;42.702;23.200;2022-10-13T08:06:10;19.70;;;13.77;;
55467;SDS011;41332;42.702;23.200;2022-10-13T08:08:35;22.25;;;13.02;;
55467;SDS011;41332;42.702;23.200;2022-10-13T08:11:05;21.50;;;12.23;;
55467;SDS011;41332;42.702;23.200;2022-10-13T08:13:33;19.67;;;11.55;;
55467;SDS011;41332;42.702;23.200;2022-10-13T08:15:59;20.42;;;12.90;;
55467;SDS011;41332;42.702;23.200;2022-10-13T08:18:25;21.23;;;12.45;;
55467;SDS011;41332;42.702;23.200;2022-10-13T08:20:51;19.77;;;12.23;;
55467;SDS011;41332;42.702;23.200;2022-10-13T08:23:17;22.20;;;12.52;;
55467;SDS011;41332;42.702;23.200;2022-10-13T08:25:42;19.73;;;12.02;;
55467;SDS011;41332;42.702;23.200;2022-10-13T08:28:18;15.25;;;11.63;;
55467;SDS011;41332;42.702;23.200;2022-10-13T08:30:45;22.77;;;13.35;;
55467;SDS011;41332;42.702;23.200;2022-10-13T08:33:11;20.42;;;11.73;;
55467;SDS011;41332;42.702;23.200;2022-10-13T08:35:37;14.95;;;10.82;;
55467;SDS011;41332;42.702;23.200;2022-10-13T08:38:03;21.25;;;11.70;;
55467;SDS011;41332;42.702;23.200;2022-10-13T08:40:28;17.83;;;12.77;;
55467;SDS011;41332;42.702;23.200;2022-10-13T08:42:54;18.00;;;11.80;;
55467;SDS011;41332;42.702;23.200;2022-10-13T08:45:24;17.52;;;11.35;;
55467;SDS011;41332;42.702;23.200;2022-10-13T08:47:54;18.83;;;10.82;;
55467;SDS011;41332;42.702;23.200;2022-10-13T08:50:45;17.20;;;11.38;;
55467;SDS011;41332;42.702;23.200;2022-10-13T08:53:29;16.23;;;10.30;;
55467;SDS011;41332;42.702;23.200;2022-10-13T08:58:34;15.05;;;10.30;;
55467;SDS011;41332;42.702;23.200;2022-10-13T09:03:34;14.32;;;10.10;;
55467;SDS011;41332;42.702;23.200;2022-10-13T09:06:26;18.25;;;10.73;;
55467;SDS011;41332;42.702;23.200;2022-10-13T09:08:57;22.17;;;11.98;;
55467;SDS011;41332;42.702;23.200;2022-10-13T09:11:25;15.60;;;11.02;;
55467;SDS011;41332;42.702;23.200;2022-10-13T09:14:03;13.67;;;9.70;;
55467;SDS011;41332;42.702;23.200;2022-10-13T09:16:34;17.15;;;10.73;;
55467;SDS011;41332;42.702;23.200;2022-10-13T09:19:19;17.20;;;10.13;;
55467;SDS011;41332;42.702;23.200;2022-10-13T09:21:45;14.32;;;9.85;;
55467;SDS011;41332;42.702;23.200;2022-10-13T09:24:15;14.18;;;10.07;;
55467;SDS011;41332;42.702;23.200;2022-10-13T09:26:44;14.90;;;9.65;;
55467;SDS011;41332;42.702;23.200;2022-10-13T09:29:15;16.48;;;10.27;;
55467;SDS011;41332;42.702;23.200;2022-10-13T09:31:45;15.75;;;9.85;;
55467;SDS011;41332;42.702;23.200;2022-10-13T09:34:15;13.30;;;8.68;;
55467;SDS011;41332;42.702;23.200;2022-10-13T09:36:58;13.80;;;8.33;;
55467;SDS011;41332;42.702;23.200;2022-10-13T09:39:24;16.20;;;9.77;;
55467;SDS011;41332;42.702;23.200;2022-10-13T09:41:50;13.85;;;9.55;;
55467;SDS011;41332;42.702;23.200;2022-10-13T09:44:28;14.02;;;9.23;;
55467;SDS011;41332;42.702;23.200;2022-10-13T09:46:57;13.57;;;8.82;;
55467;SDS011;41332;42.702;23.200;2022-10-13T09:52:16;15.07;;;9.30;;
55467;SDS011;41332;42.702;23.200;2022-10-13T09:54:49;14.68;;;7.93;;
55467;SDS011;41332;42.702;23.200;2022-10-13T09:59:49;11.43;;;9.02;;
55467;SDS011;41332;42.702;23.200;2022-10-13T10:02:19;15.50;;;9.60;;
55467;SDS011;41332;42.702;23.200;2022-10-13T10:07:15;12.60;;;8.07;;
55467;SDS011;41332;42.702;23.200;2022-10-13T10:09:46;10.27;;;8.52;;
55467;SDS011;41332;42.702;23.200;2022-10-13T10:12:18;18.17;;;9.02;;
55467;SDS011;41332;42.702;23.200;2022-10-13T10:14:47;12.95;;;9.38;;
55467;SDS011;41332;42.702;23.200;2022-10-13T10:30:35;13.50;;;9.85;;
55467;SDS011;41332;42.702;23.200;2022-10-13T10:33:18;17.15;;;9.43;;
55467;SDS011;41332;42.702;23.200;2022-10-13T10:41:39;13.82;;;8.82;;
55467;SDS011;41332;42.702;23.200;2022-10-13T10:44:16;20.50;;;11.63;;
55467;SDS011;41332;42.702;23.200;2022-10-13T10:46:49;22.20;;;12.57;;
55467;SDS011;41332;42.702;23.200;2022-10-13T10:49:17;16.38;;;11.50;;
55467;SDS011;41332;42.702;23.200;2022-10-13T10:51:47;16.38;;;10.20;;
55467;SDS011;41332;42.702;23.200;2022-10-13T10:57:08;15.32;;;11.63;;
55467;SDS011;41332;42.702;23.200;2022-10-13T10:59:49;16.27;;;10.02;;
55467;SDS011;41332;42.702;23.200;2022-10-13T11:02:36;19.58;;;11.90;;
55467;SDS011;41332;42.702;23.200;2022-10-13T11:05:03;21.33;;;11.82;;
55467;SDS011;41332;42.702;23.200;2022-10-13T11:20:46;13.10;;;9.50;;
55467;SDS011;41332;42.702;23.200;2022-10-13T11:25:34;18.60;;;9.93;;
55467;SDS011;41332;42.702;23.200;2022-10-13T11:41:27;17.67;;;9.40;;
55467;SDS011;41332;42.702;23.200;2022-10-13T11:44:17;18.48;;;11.95;;
55467;SDS011;41332;42.702;23.200;2022-10-13T11:50:17;17.17;;;10.90;;
55467;SDS011;41332;42.702;23.200;2022-10-13T11:55:47;14.02;;;9.82;;
55467;SDS011;41332;42.702;23.200;2022-10-13T12:03:22;20.17;;;12.55;;
55467;SDS011;41332;42.702;23.200;2022-10-13T12:05:48;18.10;;;11.43;;
55467;SDS011;41332;42.702;23.200;2022-10-13T12:08:14;18.85;;;11.50;;
55467;SDS011;41332;42.702;23.200;2022-10-13T12:10:40;19.63;;;12.25;;
55467;SDS011;41332;42.702;23.200;2022-10-13T12:13:15;20.33;;;12.90;;
55467;SDS011;41332;42.702;23.200;2022-10-13T12:15:45;19.13;;;12.50;;
55467;SDS011;41332;42.702;23.200;2022-10-13T12:18:30;18.38;;;11.40;;
55467;SDS011;41332;42.702;23.200;2022-10-13T12:21:01;23.70;;;11.00;;
55467;SDS011;41332;42.702;23.200;2022-10-13T12:23:32;19.45;;;9.90;;
55467;SDS011;41332;42.702;23.200;2022-10-13T12:25:58;18.02;;;10.95;;
55467;SDS011;41332;42.702;23.200;2022-10-13T12:28:28;17.05;;;10.68;;
55467;SDS011;41332;42.702;23.200;2022-10-13T12:31:14;20.92;;;10.73;;
55467;SDS011;41332;42.702;23.200;2022-10-13T12:33:42;17.42;;;10.68;;
55467;SDS011;41332;42.702;23.200;2022-10-13T12:36:17;21.25;;;10.77;;
55467;SDS011;41332;42.702;23.200;2022-10-13T12:38:47;14.15;;;10.35;;
55467;SDS011;41332;42.702;23.200;2022-10-13T12:41:18;17.98;;;11.63;;
55467;SDS011;41332;42.702;23.200;2022-10-13T12:43:49;17.35;;;10.32;;
55467;SDS011;41332;42.702;23.200;2022-10-13T12:49:09;18.40;;;9.75;;
55467;SDS011;41332;42.702;23.200;2022-10-13T12:57:05;13.95;;;9.43;;
55467;SDS011;41332;42.702;23.200;2022-10-13T12:59:40;15.00;;;9.00;;
55467;SDS011;41332;42.702;23.200;2022-10-13T13:04:48;15.25;;;9.10;;
55467;SDS011;41332;42.702;23.200;2022-10-13T13:07:27;12.27;;;8.75;;
55467;SDS011;41332;42.702;23.200;2022-10-13T13:10:08;12.27;;;9.00;;
55467;SDS011;41332;42.702;23.200;2022-10-13T13:12:39;15.85;;;8.77;;
55467;SDS011;41332;42.702;23.200;2022-10-13T13:17:49;16.63;;;9.35;;
55467;SDS011;41332;42.702;23.200;2022-10-13T13:20:26;17.13;;;9.35;;
55467;SDS011;41332;42.702;23.200;2022-10-13T13:22:54;13.45;;;7.70;;
55467;SDS011;41332;42.702;23.200;2022-10-13T13:25:19;13.98;;;8.32;;
55467;SDS011;41332;42.702;23.200;2022-10-13T13:27:45;12.10;;;8.45;;
55467;SDS011;41332;42.702;23.200;2022-10-13T13:30:12;13.82;;;7.90;;
55467;SDS011;41332;42.702;23.200;2022-10-13T13:32:39;16.88;;;8.50;;
55467;SDS011;41332;42.702;23.200;2022-10-13T13:35:06;12.77;;;8.38;;
55467;SDS011;41332;42.702;23.200;2022-10-13T13:37:34;13.23;;;9.35;;
55467;SDS011;41332;42.702;23.200;2022-10-13T13:40:04;11.02;;;8.23;;
55467;SDS011;41332;42.702;23.200;2022-10-13T13:42:31;11.75;;;7.53;;
55467;SDS011;41332;42.702;23.200;2022-10-13T13:44:57;8.82;;;6.82;;
55467;SDS011;41332;42.702;23.200;2022-10-13T13:47:23;10.57;;;7.07;;
55467;SDS011;41332;42.702;23.200;2022-10-13T13:49:53;8.90;;;6.55;;
55467;SDS011;41332;42.702;23.200;2022-10-13T13:52:20;11.18;;;7.78;;
55467;SDS011;41332;42.702;23.200;2022-10-13T13:54:46;14.52;;;8.05;;
55467;SDS011;41332;42.702;23.200;2022-10-13T13:57:12;11.77;;;7.15;;
55467;SDS011;41332;42.702;23.200;2022-10-13T13:59:39;9.43;;;7.38;;
55467;SDS011;41332;42.702;23.200;2022-10-13T14:02:05;13.25;;;7.45;;
55467;SDS011;41332;42.702;23.200;2022-10-13T14:04:35;10.25;;;6.85;;
55467;SDS011;41332;42.702;23.200;2022-10-13T14:07:01;10.23;;;7.05;;
55467;SDS011;41332;42.702;23.200;2022-10-13T14:09:26;7.70;;;6.68;;
55467;SDS011;41332;42.702;23.200;2022-10-13T14:11:52;12.85;;;6.70;;
55467;SDS011;41332;42.702;23.200;2022-10-13T14:14:17;8.95;;;6.88;;
55467;SDS011;41332;42.702;23.200;2022-10-13T14:16:43;8.50;;;6.45;;
55467;SDS011;41332;42.702;23.200;2022-10-13T14:19:08;11.55;;;6.45;;
55467;SDS011;41332;42.702;23.200;2022-10-13T14:21:34;8.88;;;6.88;;
55467;SDS011;41332;42.702;23.200;2022-10-13T14:24:00;10.38;;;6.70;;
55467;SDS011;41332;42.702;23.200;2022-10-13T14:26:26;7.07;;;6.05;;
55467;SDS011;41332;42.702;23.200;2022-10-13T14:28:51;8.30;;;6.72;;
55467;SDS011;41332;42.702;23.200;2022-10-13T14:31:17;9.13;;;6.72;;
55467;SDS011;41332;42.702;23.200;2022-10-13T14:33:42;11.82;;;6.40;;
55467;SDS011;41332;42.702;23.200;2022-10-13T14:36:08;11.73;;;6.50;;
55467;SDS011;41332;42.702;23.200;2022-10-13T14:38:34;7.07;;;6.00;;
55467;SDS011;41332;42.702;23.200;2022-10-13T14:41:00;8.75;;;5.75;;
55467;SDS011;41332;42.702;23.200;2022-10-13T14:45:52;8.55;;;5.97;;
55467;SDS011;41332;42.702;23.200;2022-10-13T14:48:18;7.30;;;5.95;;
55467;SDS011;41332;42.702;23.200;2022-10-13T14:50:44;11.95;;;6.43;;
55467;SDS011;41332;42.702;23.200;2022-10-13T14:53:09;8.90;;;6.35;;
55467;SDS011;41332;42.702;23.200;2022-10-13T14:55:39;8.57;;;6.68;;
55467;SDS011;41332;42.702;23.200;2022-10-13T14:58:06;12.38;;;6.88;;
55467;SDS011;41332;42.702;23.200;2022-10-13T15:00:31;6.93;;;5.47;;
55467;SDS011;41332;42.702;23.200;2022-10-13T15:02:57;6.65;;;5.95;;
55467;SDS011;41332;42.702;23.200;2022-10-13T15:05:22;9.32;;;6.65;;
55467;SDS011;41332;42.702;23.200;2022-10-13T15:07:47;8.30;;;5.35;;
55467;SDS011;41332;42.702;23.200;2022-10-13T15:10:18;8.88;;;7.10;;
55467;SDS011;41332;42.702;23.200;2022-10-13T15:12:45;12.98;;;6.40;;
55467;SDS011;41332;42.702;23.200;2022-10-13T15:15:18;12.20;;;6.97;;
55467;SDS011;41332;42.702;23.200;2022-10-13T15:17:44;11.48;;;7.57;;
55467;SDS011;41332;42.702;23.200;2022-10-13T15:20:10;8.98;;;6.25;;
55467;SDS011;41332;42.702;23.200;2022-10-13T15:22:49;6.72;;;5.25;;
55467;SDS011;41332;42.702;23.200;2022-10-13T15:25:31;4.70;;;4.30;;
55467;SDS011;41332;42.702;23.200;2022-10-13T15:27:57;10.23;;;5.38;;
55467;SDS011;41332;42.702;23.200;2022-10-13T15:30:38;10.88;;;5.97;;
55467;SDS011;41332;42.702;23.200;2022-10-13T15:33:03;10.80;;;6.28;;
55467;SDS011;41332;42.702;23.200;2022-10-13T15:35:29;5.57;;;5.07;;
55467;SDS011;41332;42.702;23.200;2022-10-13T15:37:59;7.60;;;5.45;;
55467;SDS011;41332;42.702;23.200;2022-10-13T15:40:24;6.18;;;4.15;;
55467;SDS011;41332;42.702;23.200;2022-10-13T15:42:51;10.77;;;5.60;;
55467;SDS011;41332;42.702;23.200;2022-10-13T15:45:17;17.38;;;8.55;;
55467;SDS011;41332;42.702;23.200;2022-10-13T15:47:42;7.13;;;6.43;;
55467;SDS011;41332;42.702;23.200;2022-10-13T15:50:07;8.75;;;6.25;;
55467;SDS011;41332;42.702;23.200;2022-10-13T15:52:42;6.13;;;5.43;;
55467;SDS011;41332;42.702;23.200;2022-10-13T15:55:09;7.63;;;5.40;;
55467;SDS011;41332;42.702;23.200;2022-10-13T15:57:37;7.95;;;5.22;;
55467;SDS011;41332;42.702;23.200;2022-10-13T16:00:05;8.65;;;5.63;;
55467;SDS011;41332;42.702;23.200;2022-10-13T16:02:32;6.93;;;5.15;;
55467;SDS011;41332;42.702;23.200;2022-10-13T16:04:57;6.70;;;4.85;;
55467;SDS011;41332;42.702;23.200;2022-10-13T16:07:28;5.03;;;4.63;;
55467;SDS011;41332;42.702;23.200;2022-10-13T16:09:54;6.03;;;4.80;;
55467;SDS011;41332;42.702;23.200;2022-10-13T16:12:19;8.48;;;5.22;;
55467;SDS011;41332;42.702;23.200;2022-10-13T16:14:44;5.88;;;4.85;;
55467;SDS011;41332;42.702;23.200;2022-10-13T16:17:10;5.53;;;4.82;;
55467;SDS011;41332;42.702;23.200;2022-10-13T16:19:35;6.65;;;5.68;;
55467;SDS011;41332;42.702;23.200;2022-10-13T16:22:01;5.88;;;4.80;;